Anaheim, California
Current Conditions -  °F | °C
As of 4:53 PM on Friday 24 Oct 2014 (Local Time) from KFUL Reporting Station
Clear Clear  
Wind Chill: 84°   Ceiling: Unl
Heat Index: 84°   Visibility: 10mi
Dew Point: 35°   Wind: 6mph
Humidity: 17%   Direction: 210°SSW
Pressure: 29.91"   Gusts: NA
Location:  33.83°N, 117.91°W
Report Text: KFUL 242353Z 21005KT 10SM CLR 29/02 A2991 RMK AO2 SLP127 T02890017 10317 20278 56003
Loading
Personal Weather Stations






























Interactive Weather Map
Tropical Storm Tracking
New forecast layout! Learn more

10-Day Weather Forecast

Advertisements
Track Severe Weather on mobile